首页
METAR-TAF:

METAR-TAF

机场 :

Smithers, 不列颠哥伦比亚, 加拿大

纬度: 54-49N, 经度: 127-11W, 海拔: 523米

当前天气观测

该预报发布于1小时和2分钟前的17:00 UTC
风速4节,风向东转东南,在西转西南之间变化
温度 14°C
湿度 67%
气压 1019 hPa
能見度: 40.2公里
多云层高于6000英尺
多云层高于10000英尺

METAR: CYYD 081700Z 11004KT 090V240 25SM BKN060 BKN100 14/08 A3010 RMK SC5AC1 SLP199 DENSITY ALT 1800FT

时间: 11:02 (18:02 UTC)

预报

该预报发布于4小时和24分钟前的13:38 UTC
预报有效从08日的 14点(UTC)到 09日的 02点(UTC)
风速3节,风向多变
能見度: 10公里
散云层高于6000英尺
多云层高于10000英尺
短暂存在
从 08日的 14点(UTC)到 08日的 17点(UTC)
能見度: 4.8公里
多云层高于5000英尺
小阵雨, 轻雾
从 08日的 1700点(UTC)
风速8节,风向西北
能見度: 10公里
多云层高于6000英尺
短暂存在
从 08日的 17点(UTC)到 09日的 02点(UTC)
能見度: 10公里
多云层高于5000英尺
小阵雨

TAF: CYYD 081338Z 0814/0902 VRB03KT P6SM SCT060 BKN100 TEMPO 0814/0817 3SM -SHRA BR BKN050 FM081700 32008KT P6SM BKN060 TEMPO 0817/0902 P6SM -SHRA BKN050 RMK FCST BASED ON AUTO OBS. NXT FCST BY 081900Z

超过4000个机场的气象观测和天气预报(METAR&TAF报告)。

可查询的气象台以黄色和红色小点在地图上表示。

将鼠标移到小点上方,可查看气象台名称。

然后点击查看天气观测和预报。

如需切换地图:点击带黑十字的绿色按钮放大地图;点击带横线的绿色按钮缩小地图;或者点击绿色箭头查看邻近地区的地图。


METAR-TAF: